Time;durP1;ratioP1;P1;durP2;ratioP2;P2;SDS_P1;SDS_P2;PMS_P1;PMS_P2;Temp;Humidity;BMP_temperature;BMP_pressure;BME280_temperature;BME280_humidity;BME280_pressure;Samples;Min_cycle;Max_cycle;Signal;HPM_P1;HPM_P2
2024/02/07 00:00:59;;;;;;;7.38;4.65;;;8.10;94.00;;;;;;5044550;28;20056;-92
2024/02/07 00:03:25;;;;;;;5.20;2.83;;;8.10;93.40;;;;;;5040850;28;20029;-89
2024/02/07 00:05:51;;;;;;;5.10;3.30;;;8.10;92.90;;;;;;5044785;28;20021;-89
2024/02/07 00:08:17;;;;;;;8.60;2.95;;;8.20;92.20;;;;;;5037172;28;20549;-91
2024/02/07 00:10:43;;;;;;;7.95;4.15;;;8.10;92.30;;;;;;5034081;28;20006;-91
2024/02/07 00:13:09;;;;;;;5.82;2.53;;;8.10;92.30;;;;;;5035126;28;20048;-91
2024/02/07 00:15:34;;;;;;;6.25;3.17;;;8.20;92.40;;;;;;5034169;28;20029;-92
2024/02/07 00:18:00;;;;;;;8.18;4.05;;;8.10;93.30;;;;;;5035477;28;20029;-91
2024/02/07 00:20:26;;;;;;;7.35;3.75;;;8.10;95.20;;;;;;5036955;28;20021;-91
2024/02/07 00:22:51;;;;;;;12.30;4.25;;;8.10;95.70;;;;;;5051062;28;20021;-90
2024/02/07 00:25:17;;;;;;;8.30;3.40;;;8.10;96.70;;;;;;5036478;28;20032;-91
2024/02/07 00:27:42;;;;;;;8.25;3.83;;;8.00;98.80;;;;;;5051033;28;20376;-91
2024/02/07 00:30:10;;;;;;;5.43;3.30;;;7.90;99.60;;;;;;5033788;28;20017;-90
2024/02/07 00:32:35;;;;;;;7.65;4.55;;;7.80;99.90;;;;;;5041060;28;20029;-90
2024/02/07 00:35:01;;;;;;;8.43;3.78;;;7.80;99.90;;;;;;5040238;28;20037;-92
2024/02/07 00:37:27;;;;;;;6.45;3.17;;;7.80;99.90;;;;;;5033183;28;20021;-91
2024/02/07 00:39:52;;;;;;;8.38;4.22;;;7.70;99.90;;;;;;5032138;28;20037;-90
2024/02/07 00:42:18;;;;;;;8.75;3.65;;;7.70;99.90;;;;;;5033218;28;20041;-90
2024/02/07 00:44:44;;;;;;;14.50;4.28;;;7.70;99.90;;;;;;5039139;28;20041;-91
2024/02/07 00:47:11;;;;;;;7.05;4.20;;;7.70;99.50;;;;;;5035087;28;20018;-91
2024/02/07 00:49:37;;;;;;;9.70;4.03;;;7.80;99.40;;;;;;5017197;28;20427;-90
2024/02/07 00:52:04;;;;;;;6.47;3.53;;;7.80;97.70;;;;;;5048459;28;20055;-90
2024/02/07 00:54:29;;;;;;;6.18;3.42;;;7.90;96.80;;;;;;5036315;28;20531;-91
2024/02/07 00:56:55;;;;;;;9.77;3.15;;;8.00;96.30;;;;;;5039122;28;20036;-90
2024/02/07 00:59:21;;;;;;;7.63;3.65;;;8.00;95.30;;;;;;5046430;28;20021;-91
2024/02/07 01:01:47;;;;;;;5.82;2.33;;;8.00;96.00;;;;;;5028384;28;20068;-89
2024/02/07 01:04:13;;;;;;;6.82;4.32;;;8.10;96.10;;;;;;5048384;28;20399;-90
2024/02/07 01:06:39;;;;;;;12.10;4.28;;;8.00;95.40;;;;;;5015967;28;20040;-91
2024/02/07 01:09:05;;;;;;;6.50;2.85;;;8.10;94.90;;;;;;5022628;28;20063;-92
2024/02/07 01:11:31;;;;;;;8.00;3.75;;;8.10;95.50;;;;;;5045211;28;20024;-92
2024/02/07 01:13:57;;;;;;;6.40;3.38;;;8.10;94.10;;;;;;5047547;28;20021;-91
2024/02/07 01:16:23;;;;;;;5.38;3.40;;;8.10;94.20;;;;;;5042915;28;20474;-91
2024/02/07 01:18:51;;;;;;;10.02;4.90;;;8.10;93.40;;;;;;5042445;28;20383;-92
2024/02/07 01:21:16;;;;;;;5.72;2.85;;;8.20;92.90;;;;;;5045129;28;20032;-91
2024/02/07 01:23:46;;;;;;;7.30;3.45;;;8.20;92.20;;;;;;5044601;28;20026;-91
2024/02/07 01:26:13;;;;;;;7.45;3.22;;;8.20;91.80;;;;;;5014795;28;20049;-91
2024/02/07 01:28:39;;;;;;;6.82;3.30;;;8.30;92.30;;;;;;5016880;28;20035;-90
2024/02/07 01:31:06;;;;;;;7.18;4.45;;;8.30;91.90;;;;;;5040653;28;20451;-93
2024/02/07 01:33:31;;;;;;;4.72;3.15;;;8.30;92.00;;;;;;5032379;28;20034;-91
2024/02/07 01:35:58;;;;;;;7.68;4.57;;;8.30;91.40;;;;;;5042660;28;20044;-90
2024/02/07 01:38:24;;;;;;;6.22;3.15;;;8.30;91.30;;;;;;5040609;28;20034;-93
2024/02/07 01:40:49;;;;;;;6.53;2.80;;;8.30;92.40;;;;;;5021761;28;20040;-91
2024/02/07 01:43:16;;;;;;;8.85;3.70;;;8.30;93.00;;;;;;5038405;28;20025;-91
2024/02/07 01:45:42;;;;;;;5.90;3.78;;;8.20;94.00;;;;;;5042322;28;20470;-91
2024/02/07 01:48:08;;;;;;;7.43;5.32;;;8.10;95.20;;;;;;5039783;28;20132;-90
2024/02/07 01:50:40;;;;;;;11.70;4.00;;;8.10;94.50;;;;;;5050258;28;20554;-90
2024/02/07 01:53:07;;;;;;;7.53;3.03;;;8.10;94.40;;;;;;5049508;28;20285;-92
2024/02/07 01:55:35;;;;;;;6.82;2.92;;;8.10;94.70;;;;;;5035445;28;20528;-90
2024/02/07 01:58:01;;;;;;;7.22;3.63;;;8.10;94.20;;;;;;5018668;28;20041;-91
2024/02/07 02:00:27;;;;;;;5.80;3.90;;;8.10;94.20;;;;;;5037437;28;20021;-90
2024/02/07 02:02:53;;;;;;;6.18;2.85;;;8.20;93.80;;;;;;5034402;28;20103;-92
2024/02/07 02:05:19;;;;;;;7.38;3.97;;;8.20;93.70;;;;;;5021968;28;20017;-89
2024/02/07 02:07:47;;;;;;;8.70;3.17;;;8.20;94.10;;;;;;5040235;28;20037;-90
2024/02/07 02:10:13;;;;;;;8.43;4.15;;;8.20;93.80;;;;;;5047873;28;20021;-91
2024/02/07 02:12:40;;;;;;;6.22;3.15;;;8.20;93.40;;;;;;5035453;28;20036;-90
2024/02/07 02:15:07;;;;;;;6.78;3.63;;;8.20;93.80;;;;;;5035262;28;20026;-91
2024/02/07 02:17:32;;;;;;;5.70;3.40;;;8.30;93.50;;;;;;5039519;28;20080;-91
2024/02/07 02:19:59;;;;;;;11.52;3.85;;;8.30;93.10;;;;;;5036039;28;20029;-90
2024/02/07 02:22:52;;;;;;;6.57;3.10;;;8.30;93.10;;;;;;5048307;28;20029;-91
2024/02/07 02:25:36;;;;;;;7.00;3.80;;;8.30;93.30;;;;;;5015998;28;20022;-90
2024/02/07 02:28:39;;;;;;;7.63;2.53;;;8.40;92.90;;;;;;5029482;28;20043;-91
2024/02/07 02:31:12;;;;;;;8.65;3.90;;;8.40;92.40;;;;;;5030852;28;20109;-92
2024/02/07 02:33:39;;;;;;;6.75;3.38;;;8.40;91.90;;;;;;5033580;28;20030;-92
2024/02/07 02:36:06;;;;;;;5.80;4.32;;;8.40;91.50;;;;;;5046109;28;20025;-90
2024/02/07 02:38:35;;;;;;;6.28;3.75;;;8.40;91.90;;;;;;5040049;28;20036;-93
2024/02/07 02:41:03;;;;;;;8.43;3.60;;;8.50;91.60;;;;;;5037425;28;20025;-89
2024/02/07 02:43:30;;;;;;;10.27;4.07;;;8.40;92.20;;;;;;5039236;28;20018;-91
2024/02/07 02:45:55;;;;;;;7.13;3.75;;;8.40;92.20;;;;;;5037839;28;20041;-92
2024/02/07 02:48:21;;;;;;;8.93;3.88;;;8.40;91.20;;;;;;5040244;28;20388;-91
2024/02/07 02:50:48;;;;;;;7.78;3.88;;;8.40;91.40;;;;;;5017898;28;20026;-91
2024/02/07 02:53:16;;;;;;;8.10;4.13;;;8.50;91.50;;;;;;5027026;28;20120;-91
2024/02/07 02:55:42;;;;;;;7.00;2.90;;;8.40;92.20;;;;;;5039236;28;20103;-90
2024/02/07 02:58:09;;;;;;;9.45;4.28;;;8.40;93.00;;;;;;5034770;28;20068;-91
2024/02/07 03:00:35;;;;;;;6.85;3.72;;;8.30;94.40;;;;;;5036357;28;20022;-90
2024/02/07 03:03:02;;;;;;;7.03;3.35;;;8.30;94.30;;;;;;5037065;28;20467;-92
2024/02/07 03:05:45;;;;;;;17.58;4.55;;;8.30;94.60;;;;;;5017708;28;20328;-91
2024/02/07 03:08:21;;;;;;;8.23;4.00;;;8.30;94.90;;;;;;5032614;28;20032;-93
2024/02/07 03:10:49;;;;;;;10.27;4.05;;;8.20;93.90;;;;;;5039520;28;20488;-91
2024/02/07 03:13:15;;;;;;;6.88;3.42;;;8.20;94.40;;;;;;5047423;28;20399;-91
2024/02/07 03:15:41;;;;;;;7.35;4.40;;;8.30;94.00;;;;;;5048047;28;20017;-91
2024/02/07 03:18:07;;;;;;;5.93;3.67;;;8.20;94.30;;;;;;5024593;28;20020;-90
2024/02/07 03:20:33;;;;;;;6.00;3.65;;;8.20;94.30;;;;;;5052199;28;20056;-91
2024/02/07 03:22:59;;;;;;;6.57;3.65;;;8.30;93.50;;;;;;5047180;28;20097;-91
2024/02/07 03:25:26;;;;;;;27.23;5.88;;;8.30;92.80;;;;;;5048257;28;20026;-89
2024/02/07 03:27:51;;;;;;;9.18;3.83;;;8.30;92.40;;;;;;5048264;28;20070;-91
2024/02/07 03:30:21;;;;;;;9.20;4.40;;;8.40;91.80;;;;;;5040592;28;20033;-91
2024/02/07 03:32:53;;;;;;;7.57;3.70;;;8.40;92.90;;;;;;5040966;28;20150;-91
2024/02/07 03:35:19;;;;;;;7.93;4.55;;;8.40;92.20;;;;;;5035410;28;20028;-90
2024/02/07 03:37:44;;;;;;;11.70;4.03;;;8.40;91.30;;;;;;5037509;28;20022;-89
2024/02/07 03:40:12;;;;;;;11.90;4.20;;;8.40;91.40;;;;;;5036230;28;20111;-90
2024/02/07 03:42:39;;;;;;;7.80;5.15;;;8.40;91.30;;;;;;5046844;28;20038;-93
2024/02/07 03:45:07;;;;;;;7.75;4.28;;;8.40;91.90;;;;;;5045593;28;20074;-92
2024/02/07 03:47:32;;;;;;;;;;;8.40;92.00;;;;;;5028236;28;20033;-89
2024/02/07 03:49:58;;;;;;;8.38;3.65;;;8.40;90.90;;;;;;5049716;28;20004;-91
2024/02/07 03:52:24;;;;;;;11.07;3.67;;;8.40;92.10;;;;;;5035440;28;20088;-92
2024/02/07 03:54:50;;;;;;;9.82;4.20;;;8.50;91.40;;;;;;5037159;28;20014;-92
2024/02/07 03:57:20;;;;;;;7.20;4.72;;;8.40;91.90;;;;;;5041954;28;20055;-90
2024/02/07 03:59:49;;;;;;;7.45;2.95;;;8.40;92.70;;;;;;5021422;28;20084;-91
2024/02/07 04:02:22;;;;;;;9.90;4.82;;;8.40;93.80;;;;;;5040874;28;20026;-90
2024/02/07 04:04:49;;;;;;;10.30;4.47;;;8.40;94.60;;;;;;5042791;28;20064;-90
2024/02/07 04:07:18;;;;;;;10.30;3.78;;;8.30;94.00;;;;;;5035707;28;20272;-90
2024/02/07 04:09:45;;;;;;;13.00;4.45;;;8.30;94.30;;;;;;5036171;28;20021;-91
2024/02/07 05:17:19;;;;;;;6.43;3.45;;;8.60;91.40;;;;;;5045816;28;20032;-91
2024/02/07 05:19:48;;;;;;;11.38;5.40;;;8.50;92.10;;;;;;5043078;28;20055;-92
2024/02/07 05:22:16;;;;;;;10.60;5.28;;;8.60;91.60;;;;;;5035458;28;20081;-91
2024/02/07 05:24:43;;;;;;;9.23;5.65;;;8.60;91.90;;;;;;5037915;28;20029;-91
2024/02/07 05:27:12;;;;;;;7.65;3.90;;;8.60;91.70;;;;;;5045430;28;20025;-89
2024/02/07 05:29:41;;;;;;;7.75;3.20;;;8.60;91.70;;;;;;5044260;28;20133;-92
2024/02/07 05:32:07;;;;;;;12.93;4.90;;;8.60;91.30;;;;;;5044232;28;20045;-92
2024/02/07 05:34:34;;;;;;;8.55;3.97;;;8.70;91.20;;;;;;5037095;28;20025;-92
2024/02/07 05:37:01;;;;;;;10.15;4.00;;;8.70;91.40;;;;;;5037347;28;20028;-94
2024/02/07 05:39:27;;;;;;;8.43;4.25;;;8.70;91.20;;;;;;5036688;28;20129;-91
2024/02/07 05:41:52;;;;;;;9.95;3.38;;;8.70;90.80;;;;;;5048795;28;20124;-91
2024/02/07 05:44:18;;;;;;;9.98;4.10;;;8.70;91.10;;;;;;5043624;28;20550;-92
2024/02/07 05:46:44;;;;;;;7.10;3.95;;;8.70;91.10;;;;;;5036367;28;20057;-93
2024/02/07 05:49:13;;;;;;;9.13;4.47;;;8.70;91.00;;;;;;5036482;28;20538;-91
2024/02/07 05:51:39;;;;;;;11.05;4.30;;;8.80;90.90;;;;;;5047472;28;20026;-90
2024/02/07 05:54:07;;;;;;;9.48;4.65;;;8.80;90.80;;;;;;5036974;28;20030;-91
2024/02/07 05:56:32;;;;;;;11.38;4.53;;;8.80;90.80;;;;;;5037707;28;20030;-92
2024/02/07 05:58:59;;;;;;;7.43;4.15;;;8.80;90.60;;;;;;5022960;28;20136;-92
2024/02/07 06:01:26;;;;;;;7.15;4.15;;;8.80;90.80;;;;;;5018669;28;20037;-94
2024/02/07 06:03:52;;;;;;;8.52;3.90;;;8.80;91.00;;;;;;5036636;28;20506;-94
2024/02/07 06:06:24;;;;;;;6.88;3.33;;;8.80;91.10;;;;;;5039502;28;20033;-92
2024/02/07 06:08:51;;;;;;;10.32;5.25;;;8.80;90.70;;;;;;5034729;28;20017;-92
2024/02/07 06:11:17;;;;;;;7.75;4.20;;;8.80;90.60;;;;;;5036695;28;20045;-90
2024/02/07 06:13:43;;;;;;;7.50;4.22;;;8.80;90.90;;;;;;5041557;28;20021;-92
2024/02/07 06:16:09;;;;;;;9.32;4.38;;;8.80;91.00;;;;;;5035744;28;20033;-92
2024/02/07 06:18:35;;;;;;;10.07;5.35;;;8.80;90.60;;;;;;5036113;28;20025;-92
2024/02/07 06:21:02;;;;;;;8.98;3.97;;;8.80;90.50;;;;;;5017654;28;20064;-91
2024/02/07 06:23:28;;;;;;;9.05;5.75;;;8.80;90.50;;;;;;5035390;28;20086;-92
2024/02/07 06:25:53;;;;;;;10.95;4.70;;;8.80;90.40;;;;;;5046706;28;20052;-92
2024/02/07 06:28:19;;;;;;;9.85;5.32;;;8.80;90.80;;;;;;5030448;28;20048;-92
2024/02/07 06:30:45;;;;;;;9.63;4.22;;;8.80;90.70;;;;;;5036466;28;20022;-92
2024/02/07 06:33:10;;;;;;;10.00;5.05;;;8.80;90.70;;;;;;5037750;28;20026;-91
2024/02/07 06:35:36;;;;;;;10.40;4.20;;;8.80;91.10;;;;;;5022565;28;20029;-92
2024/02/07 06:38:02;;;;;;;10.93;4.55;;;8.90;90.20;;;;;;5040175;28;20040;-92
2024/02/07 06:40:29;;;;;;;6.80;3.50;;;8.80;90.50;;;;;;5045878;28;20036;-92
2024/02/07 06:42:54;;;;;;;10.25;4.95;;;8.80;90.20;;;;;;5057677;28;20041;-92
2024/02/07 06:45:20;;;;;;;10.43;3.92;;;8.90;90.30;;;;;;5034229;28;20034;-92
2024/02/07 06:47:46;;;;;;;10.77;3.63;;;8.80;90.30;;;;;;5049246;28;20033;-92
2024/02/07 06:50:11;;;;;;;9.35;4.75;;;8.80;91.40;;;;;;5036080;28;20064;-94
2024/02/07 06:52:38;;;;;;;14.55;4.93;;;8.80;93.30;;;;;;5038238;28;20021;-92
2024/02/07 06:55:04;;;;;;;11.57;5.05;;;8.70;94.60;;;;;;5038236;28;20030;-91
2024/02/07 06:57:30;;;;;;;10.23;4.47;;;8.60;96.30;;;;;;5035991;28;20026;-92
2024/02/07 06:59:55;;;;;;;10.00;4.22;;;8.60;96.50;;;;;;5036845;28;20022;-93
2024/02/07 07:02:21;;;;;;;11.43;4.47;;;8.50;97.10;;;;;;5040548;28;20033;-93
2024/02/07 07:04:47;;;;;;;10.52;5.53;;;8.50;97.50;;;;;;5036434;28;20025;-92
2024/02/07 07:07:12;;;;;;;10.20;4.05;;;8.50;97.10;;;;;;5038818;28;20029;-93
2024/02/07 07:09:38;;;;;;;10.55;4.95;;;8.50;97.30;;;;;;5037169;28;20311;-92
2024/02/07 07:12:04;;;;;;;10.32;4.75;;;8.50;96.60;;;;;;5029105;28;20348;-91
2024/02/07 07:14:29;;;;;;;11.52;4.75;;;8.50;96.40;;;;;;5018902;28;20030;-92
2024/02/07 07:16:55;;;;;;;10.50;3.92;;;8.60;96.20;;;;;;5022139;28;20033;-92
2024/02/07 07:19:21;;;;;;;11.98;6.18;;;8.60;96.40;;;;;;5023292;28;20044;-92
2024/02/07 07:21:46;;;;;;;7.70;3.72;;;8.60;95.70;;;;;;5028808;28;20057;-90
2024/02/07 07:24:12;;;;;;;9.82;4.70;;;8.60;95.80;;;;;;4999332;28;20033;-91
2024/02/07 07:26:38;;;;;;;10.07;4.45;;;8.60;95.20;;;;;;5016104;28;20099;-92
2024/02/07 07:29:03;;;;;;;8.43;4.57;;;8.70;95.40;;;;;;5011694;28;20075;-91
2024/02/07 07:31:30;;;;;;;10.23;3.67;;;8.70;94.90;;;;;;5002976;28;20045;-92
2024/02/07 07:33:56;;;;;;;14.80;5.45;;;8.70;94.80;;;;;;5014751;28;20034;-92
2024/02/07 07:36:26;;;;;;;12.68;4.72;;;8.70;94.00;;;;;;5018290;28;20021;-92
2024/02/07 07:38:52;;;;;;;8.75;4.97;;;8.80;93.90;;;;;;5016548;28;20036;-92
2024/02/07 07:41:18;;;;;;;10.80;4.00;;;8.80;94.10;;;;;;5012795;28;20041;-93
2024/02/07 07:43:43;;;;;;;13.80;5.13;;;8.80;94.00;;;;;;5014207;28;20046;-92
2024/02/07 07:46:12;;;;;;;9.82;4.93;;;8.80;94.00;;;;;;5019381;28;20030;-91
2024/02/07 07:48:38;;;;;;;12.15;5.43;;;8.80;94.40;;;;;;5023744;28;20033;-92
2024/02/07 07:51:06;;;;;;;11.98;5.38;;;8.80;94.40;;;;;;5030191;28;20030;-91
2024/02/07 07:53:32;;;;;;;12.05;4.63;;;8.90;93.80;;;;;;5010354;28;20111;-91
2024/02/07 07:55:57;;;;;;;10.10;4.10;;;8.90;93.50;;;;;;5012358;28;20224;-92
2024/02/07 07:58:23;;;;;;;10.90;4.85;;;8.90;93.70;;;;;;5004143;28;20120;-93
2024/02/07 08:00:49;;;;;;;9.93;4.28;;;9.00;93.00;;;;;;5007434;28;20026;-93
2024/02/07 08:03:14;;;;;;;15.90;5.10;;;9.00;93.00;;;;;;5011009;28;20048;-90
2024/02/07 08:05:41;;;;;;;11.60;4.60;;;9.00;93.70;;;;;;5026922;28;20103;-92
2024/02/07 08:08:07;;;;;;;6.80;4.72;;;9.00;93.90;;;;;;5012774;28;20185;-91
2024/02/07 08:10:34;;;;;;;12.93;5.22;;;9.00;94.50;;;;;;5008057;28;20626;-92
2024/02/07 08:13:00;;;;;;;12.43;5.00;;;9.00;95.60;;;;;;5010315;28;20030;-92
2024/02/07 08:15:25;;;;;;;9.68;4.72;;;8.90;96.70;;;;;;5015274;28;20033;-93
2024/02/07 08:17:51;;;;;;;14.77;5.30;;;8.90;97.80;;;;;;5016643;28;20113;-93
2024/02/07 08:20:22;;;;;;;10.10;4.20;;;8.80;99.30;;;;;;4983676;28;20131;-93
2024/02/07 08:22:48;;;;;;;11.93;5.65;;;8.80;99.90;;;;;;5009935;28;20031;-92
2024/02/07 08:25:14;;;;;;;13.68;5.10;;;8.70;99.90;;;;;;5012093;28;20049;-92
2024/02/07 08:27:39;;;;;;;16.73;5.13;;;8.60;99.90;;;;;;5017854;28;20127;-93
2024/02/07 08:30:06;;;;;;;11.27;5.05;;;8.60;99.90;;;;;;5031207;28;20133;-91
2024/02/07 08:32:32;;;;;;;12.32;5.55;;;8.60;99.90;;;;;;5011673;28;20504;-90
2024/02/07 08:34:58;;;;;;;9.93;5.68;;;8.50;99.90;;;;;;5002422;28;20972;-93
2024/02/07 08:37:26;;;;;;;13.18;5.82;;;8.50;99.90;;;;;;5006118;28;20040;-91
2024/02/07 08:39:52;;;;;;;12.32;5.32;;;8.50;99.90;;;;;;5020485;28;20025;-92
2024/02/07 08:42:18;;;;;;;10.85;4.68;;;8.50;99.90;;;;;;5014527;28;20124;-93
2024/02/07 08:44:44;;;;;;;13.27;5.53;;;8.50;99.90;;;;;;5015023;28;20093;-92
2024/02/07 08:47:09;;;;;;;11.38;5.32;;;8.50;99.90;;;;;;5019910;28;20029;-91
2024/02/07 08:49:35;;;;;;;10.98;5.85;;;8.50;99.90;;;;;;5022722;28;20037;-92
2024/02/07 08:52:01;;;;;;;14.13;5.25;;;8.60;99.90;;;;;;5012899;28;20439;-92
2024/02/07 08:54:26;;;;;;;14.40;6.70;;;8.50;99.90;;;;;;5001876;28;20025;-93
2024/02/07 08:56:52;;;;;;;9.85;5.10;;;8.60;99.90;;;;;;5031807;28;20060;-93
2024/02/07 08:59:18;;;;;;;19.20;5.95;;;8.60;99.90;;;;;;5002578;28;20489;-92
2024/02/07 09:01:43;;;;;;;13.95;6.55;;;8.60;99.90;;;;;;5016385;28;20140;-91
2024/02/07 09:04:09;;;;;;;13.45;6.18;;;8.60;99.90;;;;;;5020641;28;20111;-93
2024/02/07 09:06:35;;;;;;;12.68;5.68;;;8.60;99.90;;;;;;5016733;28;20360;-93
2024/02/07 09:09:02;;;;;;;11.60;5.45;;;8.60;99.90;;;;;;5033504;28;20032;-92
2024/02/07 09:11:28;;;;;;;12.95;6.25;;;8.70;99.90;;;;;;4997314;28;20033;-91
2024/02/07 09:13:54;;;;;;;16.83;6.80;;;8.60;99.90;;;;;;4997831;28;20037;-93
2024/02/07 09:16:20;;;;;;;14.82;6.35;;;8.60;99.90;;;;;;5023091;28;20051;-92
2024/02/07 09:18:46;;;;;;;12.82;5.25;;;8.70;99.90;;;;;;4994695;28;20510;-94
2024/02/07 09:21:17;;;;;;;13.85;5.30;;;8.70;99.90;;;;;;5006784;28;20128;-90
2024/02/07 09:23:45;;;;;;;12.63;6.10;;;8.70;99.90;;;;;;5038283;28;20096;-92
2024/02/07 09:26:11;;;;;;;14.50;6.75;;;8.70;99.90;;;;;;5014654;28;20045;-91
2024/02/07 09:28:36;;;;;;;12.50;5.43;;;8.70;99.90;;;;;;5013806;28;20396;-92
2024/02/07 09:31:02;;;;;;;15.10;5.72;;;8.60;99.90;;;;;;5018077;28;20025;-94
2024/02/07 09:33:28;;;;;;;15.48;8.00;;;8.60;99.90;;;;;;5014242;28;20465;-92
2024/02/07 09:35:55;;;;;;;17.13;6.75;;;8.60;99.90;;;;;;5032237;28;20029;-92
2024/02/07 09:38:21;;;;;;;13.20;6.38;;;8.60;99.90;;;;;;4998528;28;20411;-92
2024/02/07 09:40:51;;;;;;;20.60;6.93;;;8.60;99.90;;;;;;5029635;28;20030;-94
2024/02/07 09:43:17;;;;;;;15.55;7.57;;;8.60;99.90;;;;;;5035719;28;20014;-95
2024/02/07 09:45:45;;;;;;;14.43;5.50;;;8.60;99.90;;;;;;5040596;28;20033;-92
2024/02/07 09:48:21;;;;;;;12.68;6.57;;;8.60;99.90;;;;;;5036460;28;20052;-95
2024/02/07 09:50:52;;;;;;;14.80;6.07;;;8.60;99.90;;;;;;5036705;28;20037;-93
2024/02/07 09:53:20;;;;;;;11.93;5.65;;;8.60;99.90;;;;;;5012884;28;20030;-92
2024/02/07 09:55:48;;;;;;;12.50;5.35;;;8.70;99.90;;;;;;5020126;28;20392;-92
2024/02/07 09:58:15;;;;;;;14.57;6.10;;;8.60;99.90;;;;;;4998289;28;20025;-91
2024/02/07 10:00:41;;;;;;;15.90;6.63;;;8.70;99.90;;;;;;5017462;28;20048;-93
2024/02/07 10:03:17;;;;;;;9.02;4.70;;;8.70;99.90;;;;;;5022263;28;20080;-92
2024/02/07 10:05:50;;;;;;;15.68;6.63;;;8.70;99.90;;;;;;5029676;28;20085;-90
2024/02/07 10:08:16;;;;;;;13.95;6.10;;;8.80;99.90;;;;;;5022781;28;20025;-93
2024/02/07 10:10:47;;;;;;;11.93;5.32;;;8.80;99.90;;;;;;5034867;28;20044;-91
2024/02/07 10:13:17;;;;;;;15.68;6.68;;;8.90;99.90;;;;;;5025811;28;20049;-93
2024/02/07 10:15:44;;;;;;;10.68;5.55;;;8.90;99.90;;;;;;5010396;28;20029;-91
2024/02/07 10:18:18;;;;;;;11.30;5.80;;;9.00;99.90;;;;;;5036013;28;20033;-91
2024/02/07 10:20:55;;;;;;;16.35;6.05;;;9.00;99.90;;;;;;5015484;28;20068;-90
2024/02/07 10:23:22;;;;;;;12.43;6.38;;;9.10;99.90;;;;;;5016565;28;20032;-92
2024/02/07 10:25:51;;;;;;;12.25;6.35;;;9.10;99.90;;;;;;5031723;28;20034;-94
2024/02/07 10:28:18;;;;;;;15.43;7.10;;;9.20;99.90;;;;;;5032979;28;20025;-92
2024/02/07 10:31:08;;;;;;;14.55;6.13;;;9.20;99.90;;;;;;5017269;28;20030;-93
2024/02/07 10:34:12;;;;;;;13.63;5.40;;;9.20;99.90;;;;;;5021240;28;20033;-93
2024/02/07 10:36:38;;;;;;;14.38;5.78;;;9.20;99.90;;;;;;5009922;28;20504;-91
2024/02/07 10:39:36;;;;;;;12.68;6.25;;;9.30;99.90;;;;;;5042535;28;20029;-92
2024/02/07 10:42:25;;;;;;;10.77;6.15;;;9.30;99.90;;;;;;5027253;28;20034;-91
2024/02/07 10:45:29;;;;;;;18.20;5.22;;;9.30;99.90;;;;;;5028460;28;20037;-91
2024/02/07 10:48:02;;;;;;;14.30;5.60;;;9.30;99.90;;;;;;5043085;28;20034;-91
2024/02/07 10:50:31;;;;;;;15.13;5.15;;;9.30;99.90;;;;;;5018889;28;20033;-91
2024/02/07 10:52:58;;;;;;;10.40;6.30;;;9.30;99.90;;;;;;5037956;28;20041;-92
2024/02/07 10:55:23;;;;;;;11.32;4.45;;;9.30;99.90;;;;;;5037021;28;20033;-91
2024/02/07 10:57:55;;;;;;;18.00;5.65;;;9.40;99.90;;;;;;4999129;28;20029;-91
2024/02/07 11:00:21;;;;;;;11.77;6.65;;;9.40;99.90;;;;;;5018029;28;20392;-93
2024/02/07 11:02:50;;;;;;;11.43;4.85;;;9.40;99.90;;;;;;5037961;28;20029;-91
2024/02/07 11:05:17;;;;;;;16.17;5.75;;;9.40;99.90;;;;;;5003599;28;20030;-93
2024/02/07 11:07:42;;;;;;;14.00;4.53;;;9.40;99.90;;;;;;5004390;28;20787;-91
2024/02/07 11:10:09;;;;;;;13.88;6.60;;;9.30;99.90;;;;;;5014616;28;20029;-91
2024/02/07 11:12:35;;;;;;;10.48;5.43;;;9.30;99.90;;;;;;4999821;28;20600;-92
2024/02/07 11:15:19;;;;;;;10.55;5.68;;;9.30;99.90;;;;;;5041300;28;20361;-92
2024/02/07 11:17:45;;;;;;;9.20;4.57;;;9.40;99.90;;;;;;5043266;28;20033;-91
2024/02/07 11:20:13;;;;;;;11.85;5.95;;;9.40;99.90;;;;;;5037050;28;20051;-91
2024/02/07 11:22:43;;;;;;;16.67;6.55;;;9.40;99.90;;;;;;5010366;28;20042;-91
2024/02/07 11:25:13;;;;;;;10.63;7.03;;;9.40;99.90;;;;;;5029200;28;20025;-93
2024/02/07 11:27:40;;;;;;;12.95;5.18;;;9.40;99.90;;;;;;5021676;28;20093;-93
2024/02/07 11:30:26;;;;;;;12.73;5.57;;;9.30;99.90;;;;;;5034373;28;20021;-96
2024/02/07 11:32:52;;;;;;;10.18;4.88;;;9.40;99.90;;;;;;5040660;28;20017;-91
2024/02/07 11:35:22;;;;;;;13.15;5.32;;;9.40;99.90;;;;;;5024829;28;20906;-91
2024/02/07 11:37:51;;;;;;;15.00;5.35;;;9.40;99.90;;;;;;5014337;28;20041;-94
2024/02/07 11:40:26;;;;;;;9.93;4.85;;;9.40;99.90;;;;;;5012409;28;20018;-92
2024/02/07 11:43:01;;;;;;;12.13;4.88;;;9.40;99.90;;;;;;5021775;28;20025;-91
2024/02/07 11:45:27;;;;;;;10.68;5.32;;;9.50;99.90;;;;;;5002728;28;20064;-92
2024/02/07 11:47:54;;;;;;;10.00;4.93;;;9.50;99.90;;;;;;5037698;28;20069;-90
2024/02/07 11:50:23;;;;;;;15.25;5.85;;;9.30;99.90;;;;;;5004829;28;20022;-91
2024/02/07 11:52:54;;;;;;;12.52;4.18;;;9.30;99.90;;;;;;5022536;28;20029;-94
2024/02/07 11:55:20;;;;;;;14.05;5.20;;;9.30;99.90;;;;;;5028013;28;20031;-91
2024/02/07 11:57:51;;;;;;;13.50;6.45;;;9.30;99.90;;;;;;5026689;28;20033;-91
2024/02/07 12:00:23;;;;;;;8.15;5.45;;;9.20;99.90;;;;;;5020653;28;20033;-95
2024/02/07 12:02:51;;;;;;;10.35;6.30;;;9.20;99.90;;;;;;5016847;28;20109;-91
2024/02/07 12:05:19;;;;;;;9.85;5.10;;;9.20;99.90;;;;;;5019083;28;20021;-94
2024/02/07 12:07:49;;;;;;;9.27;5.05;;;9.20;99.90;;;;;;5008111;28;20052;-91
2024/02/07 12:10:17;;;;;;;11.05;5.22;;;9.20;99.90;;;;;;5005923;28;20508;-93
2024/02/07 12:12:43;;;;;;;12.00;6.03;;;9.30;99.90;;;;;;5023238;28;20378;-90
2024/02/07 12:15:40;;;;;;;13.45;5.65;;;9.30;99.90;;;;;;5015949;28;20124;-92
2024/02/07 12:18:24;;;;;;;10.55;4.40;;;9.30;99.90;;;;;;5018743;28;20056;-91
2024/02/07 12:20:51;;;;;;;12.57;6.05;;;9.30;99.90;;;;;;5014252;28;20036;-91
2024/02/07 12:23:17;;;;;;;16.65;4.75;;;9.30;99.90;;;;;;5008216;28;20144;-94
2024/02/07 12:25:43;;;;;;;5.95;3.60;;;9.30;99.90;;;;;;4998785;28;20022;-93
2024/02/07 12:28:17;;;;;;;13.50;5.05;;;9.20;99.90;;;;;;5010411;28;20107;-93
2024/02/07 12:30:43;;;;;;;10.85;4.38;;;9.20;99.90;;;;;;5023182;28;20135;-91
2024/02/07 12:33:23;;;;;;;10.52;4.97;;;9.30;99.90;;;;;;5013175;28;20033;-93
2024/02/07 12:35:55;;;;;;;8.60;4.43;;;9.20;99.90;;;;;;5017484;28;20048;-91
2024/02/07 12:38:24;;;;;;;8.68;4.78;;;9.30;99.90;;;;;;5022196;28;20036;-91
2024/02/07 12:40:51;;;;;;;13.50;5.93;;;9.30;99.90;;;;;;5027970;28;20017;-93
2024/02/07 12:43:18;;;;;;;8.48;4.53;;;9.20;99.90;;;;;;5033126;28;20064;-92
2024/02/07 12:45:53;;;;;;;14.38;4.93;;;9.30;99.90;;;;;;5025867;28;20437;-95
2024/02/07 12:48:27;;;;;;;11.85;4.97;;;9.20;99.90;;;;;;5009172;28;20034;-94
2024/02/07 12:50:55;;;;;;;10.80;4.22;;;9.30;99.90;;;;;;5050510;28;20083;-93
2024/02/07 12:53:22;;;;;;;11.45;4.13;;;9.30;99.90;;;;;;5036985;28;20520;-94
2024/02/07 12:55:49;;;;;;;14.25;4.28;;;9.30;99.90;;;;;;5034358;28;20055;-92
2024/02/07 12:58:17;;;;;;;9.38;5.03;;;9.30;99.90;;;;;;5007921;28;20079;-91
2024/02/07 13:00:46;;;;;;;7.82;4.10;;;9.40;99.90;;;;;;5019402;28;20422;-91
2024/02/07 13:03:44;;;;;;;7.95;4.55;;;9.40;99.90;;;;;;5013080;28;20041;-92
2024/02/07 13:06:36;;;;;;;13.38;5.97;;;9.40;99.90;;;;;;5014931;28;20545;-93
2024/02/07 13:09:02;;;;;;;10.98;4.38;;;9.40;99.90;;;;;;5017369;28;20025;-92
2024/02/07 13:12:00;;;;;;;12.15;4.30;;;9.40;99.90;;;;;;5007196;28;20697;-90
2024/02/07 13:14:26;;;;;;;8.50;3.55;;;9.40;99.90;;;;;;5026735;28;20037;-91
2024/02/07 13:16:53;;;;;;;10.25;4.85;;;9.40;99.90;;;;;;5006794;28;20471;-90
2024/02/07 13:19:19;;;;;;;9.38;4.68;;;9.40;99.90;;;;;;5013737;28;20032;-91
2024/02/07 13:21:46;;;;;;;10.07;3.92;;;9.40;99.90;;;;;;5010048;28;20059;-90
2024/02/07 13:24:28;;;;;;;9.20;4.57;;;9.30;99.90;;;;;;5013033;28;20503;-93
2024/02/07 13:26:56;;;;;;;11.73;4.38;;;9.40;99.90;;;;;;5014072;28;21062;-93
2024/02/07 13:29:22;;;;;;;10.00;4.65;;;9.30;99.90;;;;;;5025408;28;20365;-90
2024/02/07 13:31:48;;;;;;;9.15;4.15;;;9.30;99.90;;;;;;5022273;28;20029;-91
2024/02/07 13:34:15;;;;;;;9.10;4.70;;;9.30;99.90;;;;;;5006189;28;20484;-92
2024/02/07 13:36:41;;;;;;;8.07;4.00;;;9.40;99.90;;;;;;5008088;28;20489;-92
2024/02/07 13:39:26;;;;;;;10.70;4.10;;;9.40;99.90;;;;;;5035200;28;20112;-93
2024/02/07 13:41:54;;;;;;;11.25;4.18;;;9.40;99.90;;;;;;5035094;28;20033;-91
2024/02/07 13:44:20;;;;;;;9.90;4.55;;;9.30;99.90;;;;;;5006032;28;20041;-92
2024/02/07 13:46:46;;;;;;;7.97;4.28;;;9.40;99.90;;;;;;5010626;28;20029;-92
2024/02/07 13:49:15;;;;;;;9.82;4.82;;;9.30;99.90;;;;;;5012461;28;20049;-92
2024/02/07 13:51:43;;;;;;;8.45;4.70;;;9.30;99.90;;;;;;5009755;28;20039;-91
2024/02/07 13:54:27;;;;;;;9.23;4.80;;;9.30;99.90;;;;;;5032720;28;20053;-95
2024/02/07 13:56:53;;;;;;;12.07;5.68;;;9.30;99.90;;;;;;5019944;28;20061;-94
2024/02/07 13:59:19;;;;;;;10.18;4.10;;;9.30;99.90;;;;;;5029408;28;20136;-91
2024/02/07 14:02:01;;;;;;;9.63;4.03;;;9.30;99.90;;;;;;4988925;28;20071;-91
2024/02/07 14:04:35;;;;;;;8.45;4.18;;;9.30;99.90;;;;;;5017607;28;20053;-91